createdAt,value
2018-04-14T00:01:21.770Z,4.20
2018-04-14T00:03:49.265Z,4.80
2018-04-14T00:06:16.770Z,5.70
2018-04-14T00:08:44.243Z,7.50
2018-04-14T00:11:11.762Z,9.50
2018-04-14T00:13:40.009Z,8.03
2018-04-14T00:16:07.605Z,8.07
2018-04-14T00:18:35.117Z,8.77
2018-04-14T00:21:02.595Z,9.67
2018-04-14T00:23:30.101Z,8.87
2018-04-14T00:25:57.569Z,8.73
2018-04-14T00:28:25.090Z,9.10
2018-04-14T00:30:53.329Z,9.90
2018-04-14T00:33:20.825Z,10.07
2018-04-14T00:35:49.088Z,9.17
2018-04-14T00:38:17.351Z,8.77
2018-04-14T00:40:44.833Z,8.30
2018-04-14T00:43:13.086Z,8.07
2018-04-14T00:45:40.552Z,9.87
2018-04-14T00:48:08.814Z,8.47
2018-04-14T00:50:36.279Z,8.10
2018-04-14T00:56:06.392Z,5.87
2018-04-14T00:58:33.845Z,6.43
2018-04-14T01:01:01.341Z,6.03
2018-04-14T01:03:29.589Z,9.63
2018-04-14T01:05:57.105Z,9.90
2018-04-14T01:08:24.574Z,9.50
2018-04-14T01:10:52.108Z,10.17
2018-04-14T01:13:19.580Z,9.43
2018-04-14T01:15:47.037Z,9.53
2018-04-14T01:18:14.559Z,9.27
2018-04-14T01:20:42.010Z,9.20
2018-04-14T01:23:09.516Z,8.77
2018-04-14T01:25:36.987Z,9.73
2018-04-14T01:28:04.487Z,8.83
2018-04-14T01:30:31.977Z,7.40
2018-04-14T01:32:59.463Z,7.80
2018-04-14T01:35:26.934Z,8.63
2018-04-14T01:37:54.425Z,7.23
2018-04-14T01:40:22.659Z,7.53
2018-04-14T01:42:50.143Z,8.30
2018-04-14T01:45:17.623Z,8.20
2018-04-14T01:47:45.877Z,7.07
2018-04-14T01:50:13.364Z,7.37
2018-04-14T01:52:41.653Z,7.83
2018-04-14T01:55:09.118Z,7.80
2018-04-14T01:57:36.637Z,7.33
2018-04-14T02:00:04.117Z,7.73
2018-04-14T02:02:32.378Z,7.73
2018-04-14T02:05:00.647Z,7.77
2018-04-14T02:07:28.123Z,8.23
2018-04-14T02:09:56.387Z,9.07
2018-04-14T02:12:24.643Z,7.83
2018-04-14T02:14:52.134Z,9.80
2018-04-14T02:17:20.362Z,9.40
2018-04-14T02:19:47.851Z,8.23
2018-04-14T02:22:16.096Z,8.30
2018-04-14T02:24:44.350Z,8.93
2018-04-14T02:27:11.823Z,7.10
2018-04-14T02:29:40.095Z,8.17
2018-04-14T02:32:07.573Z,8.67
2018-04-14T02:34:35.067Z,8.33
2018-04-14T02:37:02.552Z,8.30
2018-04-14T02:39:30.042Z,7.50
2018-04-14T02:41:57.515Z,8.70
2018-04-14T02:44:25.022Z,9.10
2018-04-14T02:46:52.505Z,8.67
2018-04-14T02:49:19.991Z,7.93
2018-04-14T02:51:47.451Z,8.90
2018-04-14T02:54:14.946Z,8.83
2018-04-14T02:56:42.455Z,8.63
2018-04-14T02:59:09.945Z,9.23
2018-04-14T03:01:38.181Z,8.40
2018-04-14T03:04:05.681Z,8.83
2018-04-14T03:06:33.915Z,8.47
2018-04-14T03:09:01.412Z,9.00
2018-04-14T03:11:29.663Z,9.07
2018-04-14T03:13:57.151Z,8.87
2018-04-14T03:16:24.630Z,10.70
2018-04-14T03:18:52.118Z,9.00
2018-04-14T03:21:19.617Z,8.87
2018-04-14T03:23:47.886Z,8.80
2018-04-14T03:26:16.147Z,9.60
2018-04-14T03:28:43.634Z,7.80
2018-04-14T03:31:11.096Z,8.47
2018-04-14T03:33:38.592Z,9.40
2018-04-14T03:36:06.063Z,11.40
2018-04-14T03:38:33.581Z,11.40
2018-04-14T03:41:01.057Z,13.03
2018-04-14T03:43:28.577Z,11.77
2018-04-14T03:45:56.811Z,10.47
2018-04-14T03:48:24.340Z,11.70
2018-04-14T03:50:51.816Z,12.20
2018-04-14T03:53:19.286Z,12.03
2018-04-14T03:55:46.778Z,13.67
2018-04-14T03:58:15.042Z,13.27
2018-04-14T04:00:42.517Z,12.20
2018-04-14T04:03:10.769Z,10.33
2018-04-14T04:05:38.240Z,11.17
2018-04-14T04:08:06.497Z,11.70
2018-04-14T04:10:33.982Z,11.13
2018-04-14T04:13:02.223Z,10.67
2018-04-14T04:15:29.727Z,10.40
2018-04-14T04:17:57.219Z,12.13
2018-04-14T04:23:30.456Z,11.67
2018-04-14T04:25:57.921Z,10.37
2018-04-14T04:28:25.449Z,11.13
2018-04-14T04:30:53.471Z,15.30
2018-04-14T04:33:21.736Z,13.57
2018-04-14T04:35:49.979Z,14.10
2018-04-14T04:38:17.525Z,13.77
2018-04-14T04:40:45.007Z,11.77
2018-04-14T04:43:12.499Z,11.77
2018-04-14T04:45:40.727Z,10.73
2018-04-14T04:48:08.440Z,10.67
2018-04-14T04:50:36.735Z,11.20
2018-04-14T04:53:04.231Z,11.60
2018-04-14T04:55:31.755Z,9.33
2018-04-14T04:57:59.229Z,11.40
2018-04-14T05:00:26.736Z,12.20
2018-04-14T05:02:54.974Z,12.27
2018-04-14T05:05:22.486Z,12.73
2018-04-14T05:07:50.724Z,13.00
2018-04-14T05:10:18.239Z,12.60
2018-04-14T05:12:45.708Z,14.63
2018-04-14T05:15:13.206Z,12.87
2018-04-14T05:17:40.690Z,12.17
2018-04-14T05:20:08.191Z,13.47
2018-04-14T05:22:35.669Z,13.77
2018-04-14T05:25:03.171Z,12.97
2018-04-14T05:27:30.647Z,11.50
2018-04-14T05:29:58.150Z,11.60
2018-04-14T05:32:25.622Z,12.13
2018-04-14T05:34:53.892Z,11.10
2018-04-14T05:37:22.138Z,11.70
2018-04-14T05:39:49.659Z,11.67
2018-04-14T05:42:17.185Z,11.27
2018-04-14T05:44:44.675Z,10.87
2018-04-14T05:47:12.139Z,9.70
2018-04-14T05:49:39.602Z,10.60
2018-04-14T05:52:07.096Z,10.23
2018-04-14T05:54:34.598Z,11.07
2018-04-14T05:57:02.079Z,10.07
2018-04-14T05:59:29.601Z,10.83
2018-04-14T06:01:57.834Z,9.77
2018-04-14T06:04:25.339Z,10.23
2018-04-14T06:06:53.577Z,8.90
2018-04-14T06:09:21.076Z,11.40
2018-04-14T06:11:49.328Z,11.17
2018-04-14T06:14:16.839Z,12.03
2018-04-14T06:16:44.331Z,12.20
2018-04-14T06:19:12.022Z,18.23
2018-04-14T06:21:40.336Z,14.80
2018-04-14T06:24:08.175Z,19.77
2018-04-14T06:26:35.650Z,14.63
2018-04-14T06:29:03.155Z,11.90
2018-04-14T06:31:30.645Z,11.27
2018-04-14T06:33:58.176Z,11.10
2018-04-14T06:36:25.669Z,10.83
2018-04-14T06:38:53.140Z,11.33
2018-04-14T06:41:20.659Z,11.73
2018-04-14T06:43:48.897Z,11.83
2018-04-14T06:46:16.398Z,12.03
2018-04-14T06:48:44.689Z,10.57
2018-04-14T06:51:12.190Z,10.47
2018-04-14T06:53:39.653Z,9.67
2018-04-14T06:56:07.155Z,9.10
2018-04-14T06:58:35.404Z,7.97
2018-04-14T07:01:02.912Z,7.73
2018-04-14T07:03:30.413Z,8.97
2018-04-14T07:05:57.918Z,10.27
2018-04-14T07:08:25.403Z,11.97
2018-04-14T07:10:52.906Z,13.07
2018-04-14T07:13:21.164Z,12.67
2018-04-14T07:15:48.657Z,12.27
2018-04-14T07:18:17.001Z,11.67
2018-04-14T07:20:44.843Z,10.40
2018-04-14T07:23:13.032Z,11.47
2018-04-14T07:25:40.512Z,10.73
2018-04-14T07:28:08.044Z,10.43
2018-04-14T07:30:36.333Z,8.97
2018-04-14T07:33:03.885Z,7.63
2018-04-14T07:35:31.353Z,7.87
2018-04-14T07:37:58.851Z,7.03
2018-04-14T07:40:26.359Z,7.30
2018-04-14T07:42:53.882Z,6.70
2018-04-14T07:45:22.116Z,6.30
2018-04-14T07:47:49.624Z,6.00
2018-04-14T07:50:17.175Z,6.00
2018-04-14T07:52:44.704Z,6.10
2018-04-14T07:55:12.969Z,6.03
2018-04-14T07:57:41.250Z,6.07
2018-04-14T08:00:09.492Z,5.70
2018-04-14T08:02:36.997Z,5.17
2018-04-14T08:05:05.243Z,4.63
2018-04-14T08:07:32.750Z,4.90
2018-04-14T08:10:00.223Z,5.33
2018-04-14T08:12:27.745Z,5.22
2018-04-14T08:14:56.012Z,4.75
2018-04-14T08:17:24.252Z,4.72
2018-04-14T08:19:51.774Z,4.03
2018-04-14T08:22:19.254Z,4.57
2018-04-14T08:24:46.813Z,4.50
2018-04-14T08:27:15.026Z,4.40
2018-04-14T08:29:42.553Z,4.40
2018-04-14T08:32:10.035Z,4.00
2018-04-14T08:34:37.557Z,4.00
2018-04-14T08:37:05.046Z,3.80
2018-04-14T08:39:32.565Z,3.97
2018-04-14T08:42:00.031Z,5.07
2018-04-14T08:44:27.522Z,4.60
2018-04-14T08:46:55.011Z,4.60
2018-04-14T08:49:23.299Z,4.10
2018-04-14T08:51:50.764Z,4.22
2018-04-14T08:54:18.286Z,4.23
2018-04-14T08:56:46.522Z,3.80
2018-04-14T08:59:14.440Z,4.18
2018-04-14T09:01:42.678Z,3.97
2018-04-14T09:04:10.138Z,4.10
2018-04-14T09:06:37.646Z,3.60
2018-04-14T09:09:05.942Z,3.70
2018-04-14T09:11:33.376Z,3.37
2018-04-14T09:14:01.610Z,2.78
2018-04-14T09:16:29.109Z,3.20
2018-04-14T09:18:56.591Z,3.08
2018-04-14T09:21:24.097Z,2.97
2018-04-14T09:23:51.565Z,3.10
2018-04-14T09:26:19.858Z,3.15
2018-04-14T09:28:47.350Z,3.30
2018-04-14T09:31:14.997Z,3.40
2018-04-14T09:33:42.565Z,2.83
2018-04-14T09:36:10.127Z,2.90
2018-04-14T09:38:37.598Z,3.28
2018-04-14T09:41:05.171Z,2.45
2018-04-14T09:43:32.638Z,3.00
2018-04-14T09:46:00.170Z,2.72
2018-04-14T09:48:27.691Z,2.65
2018-04-14T09:50:55.205Z,2.78
2018-04-14T09:53:22.689Z,2.85
2018-04-14T09:55:51.021Z,2.40
2018-04-14T09:58:18.526Z,2.85
2018-04-14T10:00:52.862Z,2.90
2018-04-14T10:03:23.268Z,2.87
2018-04-14T10:05:50.744Z,2.60
2018-04-14T10:08:18.239Z,2.62
2018-04-14T10:10:45.727Z,2.40
2018-04-14T10:13:13.820Z,2.40
2018-04-14T10:15:42.104Z,2.40
2018-04-14T10:18:10.392Z,1.65
2018-04-14T10:20:37.858Z,1.55
2018-04-14T10:23:05.420Z,1.58
2018-04-14T10:25:32.930Z,1.80
2018-04-14T10:28:00.438Z,1.67
2018-04-14T10:30:27.964Z,1.77
2018-04-14T10:32:55.439Z,2.20
2018-04-14T10:35:22.943Z,2.62
2018-04-14T10:37:50.579Z,1.70
2018-04-14T10:40:18.031Z,1.62
2018-04-14T10:42:45.511Z,1.80
2018-04-14T10:45:13.028Z,1.70
2018-04-14T10:47:40.522Z,2.20
2018-04-14T10:50:08.088Z,1.40
2018-04-14T10:52:35.561Z,2.30
2018-04-14T10:55:03.110Z,1.70
2018-04-14T10:57:30.578Z,1.80
2018-04-14T10:59:58.098Z,2.47
2018-04-14T11:02:25.632Z,1.92
2018-04-14T11:04:53.241Z,1.80
2018-04-14T11:07:20.881Z,3.03
2018-04-14T11:09:48.359Z,3.12
2018-04-14T11:12:15.883Z,1.80
2018-04-14T11:14:43.421Z,1.30
2018-04-14T11:17:11.686Z,1.50
2018-04-14T11:19:39.227Z,1.73
2018-04-14T11:22:06.715Z,1.45
2018-04-14T11:24:34.240Z,1.00
2018-04-14T11:27:01.751Z,1.70
2018-04-14T11:29:29.478Z,1.17
2018-04-14T11:31:57.744Z,1.00
2018-04-14T11:34:25.243Z,0.70
2018-04-14T11:36:52.788Z,0.90
2018-04-14T11:39:20.264Z,0.95
2018-04-14T11:41:47.801Z,1.08
2018-04-14T11:44:15.620Z,0.85
2018-04-14T11:46:43.169Z,0.90
2018-04-14T11:49:10.665Z,1.00
2018-04-14T11:51:38.190Z,0.95
2018-04-14T11:54:05.665Z,3.28
2018-04-14T11:56:33.158Z,0.82
2018-04-14T11:59:00.655Z,1.00
2018-04-14T12:01:28.177Z,0.80
2018-04-14T12:03:56.444Z,0.60
2018-04-14T12:06:24.698Z,1.23
2018-04-14T12:08:52.213Z,1.60
2018-04-14T12:11:19.696Z,1.30
2018-04-14T12:13:47.202Z,1.10
2018-04-14T12:16:15.433Z,0.88
2018-04-14T12:18:42.951Z,1.25
2018-04-14T12:21:10.441Z,0.98
2018-04-14T12:23:37.987Z,1.23
2018-04-14T12:26:05.481Z,1.30
2018-04-14T12:28:33.032Z,1.45
2018-04-14T12:31:00.526Z,1.10
2018-04-14T12:33:28.803Z,1.80
2018-04-14T12:35:57.098Z,1.62
2018-04-14T12:38:24.580Z,1.70
2018-04-14T12:40:52.097Z,1.20
2018-04-14T12:43:20.334Z,1.05
2018-04-14T12:45:47.976Z,1.12
2018-04-14T12:48:15.462Z,1.55
2018-04-14T12:50:43.347Z,1.12
2018-04-14T12:53:10.856Z,1.33
2018-04-14T12:55:38.388Z,1.37
2018-04-14T12:58:05.891Z,1.30
2018-04-14T13:00:33.507Z,1.12
2018-04-14T13:03:01.014Z,1.27
2018-04-14T13:05:28.540Z,1.20
2018-04-14T13:07:56.029Z,1.08
2018-04-14T13:10:23.562Z,1.08
2018-04-14T13:12:51.045Z,1.30
2018-04-14T13:15:18.585Z,1.17
2018-04-14T13:17:46.061Z,1.48
2018-04-14T13:20:13.571Z,1.00
2018-04-14T13:22:41.881Z,1.30
2018-04-14T13:25:09.417Z,1.23
2018-04-14T13:27:36.907Z,2.15
2018-04-14T13:30:04.441Z,1.80
2018-04-14T13:32:31.930Z,1.55
2018-04-14T13:34:59.482Z,1.60
2018-04-14T13:37:26.990Z,1.58
2018-04-14T13:39:55.263Z,1.30
2018-04-14T13:42:22.779Z,1.23
2018-04-14T13:44:50.274Z,2.17
2018-04-14T13:47:18.522Z,1.90
2018-04-14T13:49:46.077Z,1.17
2018-04-14T13:52:13.600Z,1.07
2018-04-14T13:54:41.110Z,1.20
2018-04-14T13:57:08.607Z,1.40
2018-04-14T13:59:36.912Z,1.20
2018-04-14T14:02:04.482Z,2.00
2018-04-14T14:04:34.628Z,1.53
2018-04-14T14:07:02.141Z,1.30
2018-04-14T14:09:29.651Z,1.27
2018-04-14T14:11:57.919Z,1.30
2018-04-14T14:14:25.410Z,1.40
2018-04-14T14:16:52.919Z,1.67
2018-04-14T14:19:20.398Z,2.07
2018-04-14T14:21:47.998Z,1.70
2018-04-14T14:24:15.477Z,1.47
2018-04-14T14:26:42.968Z,1.40
2018-04-14T14:29:10.438Z,1.70
2018-04-14T14:31:37.936Z,1.47
2018-04-14T14:34:05.406Z,1.40
2018-04-14T14:36:32.913Z,1.50
2018-04-14T14:39:00.392Z,1.80
2018-04-14T14:41:27.891Z,1.73
2018-04-14T14:43:55.355Z,1.50
2018-04-14T14:46:22.854Z,1.30
2018-04-14T14:48:51.107Z,1.43
2018-04-14T14:51:18.613Z,1.23
2018-04-14T14:53:46.093Z,1.23
2018-04-14T14:56:13.641Z,1.90
2018-04-14T14:58:41.118Z,2.30
2018-04-14T15:01:08.616Z,2.20
2018-04-14T15:03:36.861Z,1.90
2018-04-14T15:06:04.390Z,1.40
2018-04-14T15:08:31.874Z,1.43
2018-04-14T15:10:59.687Z,1.43
2018-04-14T15:13:27.202Z,1.37
2018-04-14T15:15:54.701Z,1.50
2018-04-14T15:18:22.945Z,1.70
2018-04-14T15:20:50.445Z,1.50
2018-04-14T15:23:17.953Z,1.50
2018-04-14T15:25:45.453Z,1.60
2018-04-14T15:28:12.950Z,1.70
2018-04-14T15:30:40.479Z,1.73
2018-04-14T15:33:07.978Z,1.50
2018-04-14T15:35:35.485Z,1.23
2018-04-14T15:38:02.965Z,1.30
2018-04-14T15:40:30.481Z,1.50
2018-04-14T15:42:58.001Z,1.20
2018-04-14T15:45:25.475Z,1.20
2018-04-14T15:47:53.097Z,1.30
2018-04-14T15:50:20.600Z,1.30
2018-04-14T15:52:48.118Z,1.20
2018-04-14T15:55:16.357Z,1.37
2018-04-14T15:57:44.641Z,1.53
2018-04-14T16:00:12.918Z,1.67
2018-04-14T16:02:40.455Z,1.33
2018-04-14T16:05:07.935Z,1.70
2018-04-14T16:07:36.192Z,1.20
2018-04-14T16:10:04.466Z,1.63
2018-04-14T16:12:31.964Z,1.80
2018-04-14T16:14:59.482Z,1.47
2018-04-14T16:17:26.958Z,1.90
2018-04-14T16:19:54.458Z,1.80
2018-04-14T16:22:22.383Z,1.97
2018-04-14T16:24:50.626Z,2.03
2018-04-14T16:27:18.115Z,2.27
2018-04-14T16:29:46.387Z,1.90
2018-04-14T16:32:14.655Z,1.90
2018-04-14T16:34:42.168Z,2.10
2018-04-14T16:37:09.655Z,1.80
2018-04-14T16:39:37.167Z,1.83
2018-04-14T16:42:04.665Z,1.27
2018-04-14T16:44:32.180Z,1.50
2018-04-14T16:46:59.674Z,2.30
2018-04-14T16:49:27.260Z,1.60
2018-04-14T16:51:54.736Z,1.50
2018-04-14T16:54:23.026Z,2.00
2018-04-14T16:56:50.547Z,2.07
2018-04-14T16:59:18.045Z,1.80
2018-04-14T17:01:45.510Z,1.57
2018-04-14T17:04:13.030Z,1.50
2018-04-14T17:06:40.506Z,1.67
2018-04-14T17:09:08.784Z,1.63
2018-04-14T17:11:36.281Z,1.30
2018-04-14T17:14:03.787Z,2.00
2018-04-14T17:16:32.042Z,2.30
2018-04-14T17:18:59.537Z,2.37
2018-04-14T17:21:27.017Z,2.00
2018-04-14T17:23:54.547Z,1.60
2018-04-14T17:26:22.054Z,1.97
2018-04-14T17:28:49.578Z,1.70
2018-04-14T17:31:17.047Z,1.60
2018-04-14T17:33:44.551Z,2.80
2018-04-14T17:36:12.053Z,3.07
2018-04-14T17:38:39.571Z,3.17
2018-04-14T17:41:07.630Z,3.50
2018-04-14T17:43:35.150Z,2.20
2018-04-14T17:46:02.617Z,2.10
2018-04-14T17:48:30.158Z,1.97
2018-04-14T17:50:57.660Z,2.70
2018-04-14T17:53:25.168Z,2.60
2018-04-14T17:55:52.632Z,2.60
2018-04-14T17:58:20.185Z,2.20
2018-04-14T18:00:47.718Z,3.20
2018-04-14T18:03:16.038Z,2.80
2018-04-14T18:05:43.573Z,3.93
2018-04-14T18:08:11.863Z,4.40
2018-04-14T18:10:39.339Z,5.00
2018-04-14T18:13:06.852Z,4.90
2018-04-14T18:15:34.328Z,3.80
2018-04-14T18:18:01.832Z,4.17
2018-04-14T18:20:29.305Z,4.07
2018-04-14T18:22:56.811Z,3.27
2018-04-14T18:25:24.281Z,3.60
2018-04-14T18:27:52.571Z,3.10
2018-04-14T18:30:20.079Z,3.53
2018-04-14T18:32:47.590Z,3.47
2018-04-14T18:35:15.063Z,3.53
2018-04-14T18:37:42.573Z,3.00
2018-04-14T18:40:10.075Z,3.03
2018-04-14T18:42:37.562Z,3.23
2018-04-14T18:45:05.827Z,3.10
2018-04-14T18:47:33.329Z,2.60
2018-04-14T18:50:00.795Z,3.00
2018-04-14T18:52:28.328Z,2.40
2018-04-14T18:54:56.567Z,2.53
2018-04-14T18:57:24.051Z,2.90
2018-04-14T18:59:52.318Z,2.43
2018-04-14T19:02:20.564Z,2.70
2018-04-14T19:04:48.095Z,3.87
2018-04-14T19:07:15.574Z,3.47
2018-04-14T19:09:43.067Z,3.30
2018-04-14T19:12:10.581Z,2.43
2018-04-14T19:14:38.854Z,2.93
2018-04-14T19:17:06.344Z,3.27
2018-04-14T19:19:33.854Z,3.10
2018-04-14T19:22:02.107Z,3.27
2018-04-14T19:24:30.425Z,3.37
2018-04-14T19:26:57.893Z,3.10
2018-04-14T19:29:25.437Z,2.90
2018-04-14T19:31:52.927Z,5.40
2018-04-14T19:34:20.441Z,10.03
2018-04-14T19:36:47.935Z,16.77
2018-04-14T19:39:15.450Z,13.07
2018-04-14T19:41:42.951Z,16.43
2018-04-14T19:44:10.437Z,16.00
2018-04-14T19:46:37.949Z,19.60
2018-04-14T19:49:05.448Z,6.63
2018-04-14T19:51:32.963Z,3.93
2018-04-14T19:54:00.430Z,3.80
2018-04-14T19:56:28.008Z,3.23
2018-04-14T19:58:55.441Z,3.50
2018-04-14T20:01:22.964Z,3.23
2018-04-14T20:03:51.227Z,3.97
2018-04-14T20:06:19.526Z,4.23
2018-04-14T20:08:47.007Z,5.53
2018-04-14T20:11:14.546Z,5.83
2018-04-14T20:13:42.016Z,4.30
2018-04-14T20:16:09.521Z,4.60
2018-04-14T20:18:37.029Z,4.40
2018-04-14T20:21:04.496Z,4.80
2018-04-14T20:23:32.003Z,4.33
2018-04-14T20:25:59.488Z,3.30
2018-04-14T20:28:27.008Z,3.53
2018-04-14T20:30:54.483Z,3.00
2018-04-14T20:33:21.996Z,2.67
2018-04-14T20:35:49.482Z,3.00
2018-04-14T20:38:17.029Z,2.70
2018-04-14T20:40:44.517Z,3.13
2018-04-14T20:43:12.774Z,3.00
2018-04-14T20:45:40.256Z,3.40
2018-04-14T20:48:08.547Z,3.73
2018-04-14T20:50:36.058Z,3.57
2018-04-14T20:53:03.565Z,3.40
2018-04-14T20:55:31.090Z,3.63
2018-04-14T20:57:58.602Z,3.33
2018-04-14T21:00:26.065Z,3.50
2018-04-14T21:02:53.634Z,3.90
2018-04-14T21:05:21.144Z,4.07
2018-04-14T21:07:49.399Z,4.37
2018-04-14T21:10:16.914Z,4.33
2018-04-14T21:12:44.391Z,5.90
2018-04-14T21:15:11.904Z,7.10
2018-04-14T21:17:39.380Z,7.40
2018-04-14T21:20:06.891Z,8.33
2018-04-14T21:22:34.376Z,7.23
2018-04-14T21:25:01.877Z,8.50
2018-04-14T21:27:29.380Z,9.97
2018-04-14T21:29:57.687Z,7.77
2018-04-14T21:32:25.174Z,7.20
2018-04-14T21:34:52.701Z,6.67
2018-04-14T21:37:20.197Z,6.30
2018-04-14T21:39:47.733Z,6.60
2018-04-14T21:42:15.221Z,6.33
2018-04-14T21:44:42.807Z,8.57
2018-04-14T21:47:11.074Z,9.77
2018-04-14T21:49:39.335Z,9.73
2018-04-14T21:52:06.846Z,8.93
2018-04-14T21:54:34.334Z,8.10
2018-04-14T21:57:01.843Z,7.60
2018-04-14T21:59:29.319Z,8.03
2018-04-14T22:01:56.843Z,7.37
2018-04-14T22:04:25.076Z,6.13
2018-04-14T22:06:52.587Z,3.93
2018-04-14T22:09:20.846Z,3.50
2018-04-14T22:11:48.360Z,4.77
2018-04-14T22:14:27.471Z,3.70
2018-04-14T22:16:54.968Z,3.70
2018-04-14T22:19:22.452Z,4.47
2018-04-14T22:21:50.733Z,3.23
2018-04-14T22:24:19.022Z,3.77
2018-04-14T22:26:46.582Z,3.13
2018-04-14T22:29:14.053Z,3.27
2018-04-14T22:31:41.560Z,3.63
2018-04-14T22:34:09.101Z,3.07
2018-04-14T22:36:36.594Z,3.07
2018-04-14T22:39:04.086Z,2.93
2018-04-14T22:41:31.579Z,3.10
2018-04-14T22:43:59.070Z,3.07
2018-04-14T22:46:26.636Z,2.90
2018-04-14T22:48:54.875Z,3.90
2018-04-14T22:51:22.390Z,5.40
2018-04-14T22:53:49.891Z,5.07
2018-04-14T22:56:17.395Z,3.90
2018-04-14T22:58:44.880Z,3.10
2018-04-14T23:01:12.439Z,2.50
2018-04-14T23:03:39.918Z,2.50
2018-04-14T23:06:07.448Z,2.97
2018-04-14T23:08:34.928Z,2.60
2018-04-14T23:11:02.429Z,3.40
2018-04-14T23:13:30.666Z,3.00
2018-04-14T23:15:58.943Z,3.07
2018-04-14T23:18:26.433Z,2.97
2018-04-14T23:20:53.950Z,3.27
2018-04-14T23:23:21.431Z,4.07
2018-04-14T23:25:48.959Z,4.33
2018-04-14T23:28:16.512Z,4.37
2018-04-14T23:30:44.015Z,4.37
2018-04-14T23:33:11.495Z,4.30
2018-04-14T23:35:39.782Z,3.73
2018-04-14T23:38:07.297Z,4.37
2018-04-14T23:40:34.788Z,4.30
2018-04-14T23:43:03.042Z,4.37
2018-04-14T23:45:30.513Z,4.27
2018-04-14T23:47:58.788Z,4.07
2018-04-14T23:50:27.048Z,4.13
2018-04-14T23:52:54.538Z,4.60
2018-04-14T23:55:22.788Z,3.73
2018-04-14T23:57:50.294Z,4.10
